Time;durP1;ratioP1;P1;durP2;ratioP2;P2;SDS_P1;SDS_P2;PMS_P1;PMS_P2;Temp;Humidity;BMP_temperature;BMP_pressure;BME280_temperature;BME280_humidity;BME280_pressure;Samples;Min_cycle;Max_cycle;Signal;HPM_P1;HPM_P2
2023/06/06 00:00:57;;;;;;;1.58;1.40;;;24.40;39.80;;;;;;5056794;28;20031;-61
2023/06/06 00:03:25;;;;;;;2.22;1.40;;;24.40;39.80;;;;;;5057394;28;20116;-62
2023/06/06 00:05:51;;;;;;;2.10;1.50;;;24.30;39.70;;;;;;5057510;28;20036;-61
2023/06/06 00:08:19;;;;;;;1.20;1.10;;;24.30;39.70;;;;;;5052038;28;20028;-64
2023/06/06 00:10:46;;;;;;;1.48;1.13;;;24.30;39.80;;;;;;5055954;28;20065;-60
2023/06/06 00:13:13;;;;;;;2.25;1.38;;;24.30;39.80;;;;;;5055273;28;20033;-61
2023/06/06 00:15:40;;;;;;;1.30;1.02;;;24.30;39.80;;;;;;5052952;28;20130;-63
2023/06/06 00:18:07;;;;;;;1.35;1.20;;;24.30;39.80;;;;;;5051300;28;20092;-62
2023/06/06 00:20:35;;;;;;;1.65;1.20;;;24.30;39.70;;;;;;5055730;28;20085;-68
2023/06/06 00:23:01;;;;;;;1.40;0.93;;;24.30;39.80;;;;;;5056293;28;20210;-64
2023/06/06 00:25:27;;;;;;;1.80;1.20;;;24.30;39.80;;;;;;5040525;28;20316;-67
2023/06/06 00:27:53;;;;;;;1.67;1.20;;;24.30;39.80;;;;;;5058497;28;20054;-71
2023/06/06 00:30:19;;;;;;;1.95;1.20;;;24.20;39.70;;;;;;5037823;28;20123;-64
2023/06/06 00:32:45;;;;;;;1.67;1.30;;;24.20;39.70;;;;;;5038188;28;20029;-62
2023/06/06 00:35:11;;;;;;;1.65;1.20;;;24.20;39.70;;;;;;5055593;28;20096;-69
2023/06/06 00:37:37;;;;;;;2.40;1.40;;;24.20;39.70;;;;;;5039073;28;20055;-63
2023/06/06 00:40:04;;;;;;;1.65;1.20;;;24.20;39.70;;;;;;5034443;28;20715;-61
2023/06/06 00:42:30;;;;;;;1.60;1.30;;;24.20;40.40;;;;;;5053993;28;20063;-61
2023/06/06 00:44:56;;;;;;;1.65;1.08;;;24.20;39.70;;;;;;5058295;28;20361;-62
2023/06/06 00:47:23;;;;;;;1.30;1.20;;;24.20;39.70;;;;;;5057744;28;20017;-60
2023/06/06 00:49:50;;;;;;;1.98;1.27;;;24.20;39.70;;;;;;5056645;28;20089;-61
2023/06/06 00:52:16;;;;;;;1.60;1.15;;;24.10;40.40;;;;;;5040495;28;20044;-62
2023/06/06 00:54:43;;;;;;;1.15;1.05;;;24.20;39.80;;;;;;5039911;28;20032;-69
2023/06/06 00:57:09;;;;;;;2.65;1.25;;;24.10;39.70;;;;;;5031479;28;20087;-67
2023/06/06 00:59:37;;;;;;;1.10;1.00;;;24.10;39.70;;;;;;5055546;28;20087;-60
2023/06/06 01:02:09;;;;;;;1.42;1.33;;;24.10;39.70;;;;;;5051066;28;20036;-65
2023/06/06 01:04:40;;;;;;;2.28;1.33;;;24.10;39.80;;;;;;5025217;28;20486;-63
2023/06/06 01:07:09;;;;;;;1.38;1.10;;;24.10;39.70;;;;;;5051939;28;20319;-60
2023/06/06 01:09:39;;;;;;;1.85;1.27;;;24.10;39.80;;;;;;5031522;28;20036;-64
2023/06/06 01:12:14;;;;;;;1.92;1.27;;;24.10;39.80;;;;;;5055417;28;20100;-63
2023/06/06 01:15:02;;;;;;;1.35;1.25;;;24.10;39.70;;;;;;5034149;28;20128;-61
2023/06/06 01:17:29;;;;;;;1.73;1.10;;;24.10;39.70;;;;;;5051947;28;20037;-64
2023/06/06 01:19:56;;;;;;;2.63;1.30;;;24.00;39.70;;;;;;5038051;28;20045;-65
2023/06/06 01:22:27;;;;;;;2.25;1.13;;;24.00;39.70;;;;;;5039121;28;20040;-64
2023/06/06 01:24:56;;;;;;;1.88;1.40;;;24.00;39.80;;;;;;5037251;28;20069;-64
2023/06/06 01:27:23;;;;;;;1.67;1.35;;;24.00;39.80;;;;;;5052400;28;20416;-62
2023/06/06 01:29:50;;;;;;;2.20;1.25;;;24.00;39.80;;;;;;5054013;28;20370;-62
2023/06/06 01:32:22;;;;;;;1.92;1.20;;;24.00;40.10;;;;;;5036603;28;20325;-68
2023/06/06 01:35:00;;;;;;;2.17;1.35;;;24.00;39.90;;;;;;5054902;28;20126;-63
2023/06/06 01:37:45;;;;;;;1.73;1.27;;;24.00;39.90;;;;;;5054261;28;20359;-65
2023/06/06 01:40:15;;;;;;;1.67;1.20;;;24.00;39.90;;;;;;5053812;28;20378;-62
2023/06/06 01:42:47;;;;;;;1.73;1.17;;;24.00;39.90;;;;;;5056941;28;20456;-62
2023/06/06 01:45:15;;;;;;;1.60;1.20;;;24.00;39.90;;;;;;5057500;28;20452;-64
2023/06/06 01:47:43;;;;;;;1.65;1.20;;;24.00;39.90;;;;;;5055729;28;20045;-60
2023/06/06 01:50:10;;;;;;;1.45;1.20;;;23.90;39.90;;;;;;5036097;28;20047;-62
2023/06/06 01:52:40;;;;;;;1.80;1.35;;;23.90;39.90;;;;;;5034893;28;20100;-66
2023/06/06 01:55:07;;;;;;;1.65;1.20;;;23.90;39.90;;;;;;5032915;28;20049;-60
2023/06/06 01:57:34;;;;;;;2.05;1.15;;;23.90;39.90;;;;;;5038666;28;20377;-63
2023/06/06 02:00:00;;;;;;;1.42;1.15;;;23.90;39.90;;;;;;5036669;28;20102;-63
2023/06/06 02:02:27;;;;;;;1.67;1.10;;;23.80;39.90;;;;;;5034177;28;20021;-66
2023/06/06 02:04:53;;;;;;;1.45;1.10;;;23.80;39.90;;;;;;5054159;28;20036;-62
2023/06/06 02:07:19;;;;;;;1.73;1.10;;;23.80;39.90;;;;;;5034285;28;20059;-65
2023/06/06 02:09:45;;;;;;;1.88;1.38;;;23.80;39.90;;;;;;5034930;28;20054;-61
2023/06/06 02:12:11;;;;;;;1.52;1.00;;;23.80;39.90;;;;;;5033403;28;20433;-62
2023/06/06 02:14:37;;;;;;;2.03;1.40;;;23.80;39.90;;;;;;5054359;28;20305;-61
2023/06/06 02:17:03;;;;;;;1.60;1.27;;;23.80;39.90;;;;;;5056390;28;20040;-63
2023/06/06 02:19:32;;;;;;;1.67;1.23;;;23.80;39.90;;;;;;5035356;28;20025;-61
2023/06/06 02:22:00;;;;;;;2.00;1.38;;;23.80;39.90;;;;;;5053151;28;20052;-63
2023/06/06 02:24:25;;;;;;;1.67;1.10;;;23.80;39.90;;;;;;5051523;28;20025;-61
2023/06/06 02:26:53;;;;;;;2.63;1.48;;;23.80;39.90;;;;;;5058385;28;20072;-61
2023/06/06 02:29:20;;;;;;;1.83;1.52;;;23.80;40.00;;;;;;5032893;28;20451;-63
2023/06/06 02:31:46;;;;;;;2.17;1.25;;;23.80;40.00;;;;;;5036520;28;20017;-66
2023/06/06 02:34:12;;;;;;;2.30;1.20;;;23.70;39.90;;;;;;5038470;28;20431;-62
2023/06/06 02:36:38;;;;;;;1.30;1.10;;;23.70;39.90;;;;;;5037755;28;20066;-65
2023/06/06 02:39:05;;;;;;;1.50;1.27;;;23.70;40.00;;;;;;5036179;28;20073;-61
2023/06/06 02:41:31;;;;;;;1.17;0.95;;;23.70;40.00;;;;;;5040917;28;20076;-67
2023/06/06 02:43:57;;;;;;;2.05;1.20;;;23.70;40.00;;;;;;5039877;28;20042;-67
2023/06/06 02:46:23;;;;;;;2.22;1.33;;;23.70;40.00;;;;;;5039510;28;20383;-62
2023/06/06 02:48:49;;;;;;;1.20;1.10;;;23.70;40.00;;;;;;5037726;28;20024;-62
2023/06/06 02:51:20;;;;;;;1.35;1.20;;;23.70;40.10;;;;;;5039553;28;20091;-63
2023/06/06 02:53:46;;;;;;;1.33;1.05;;;23.70;40.00;;;;;;5032864;28;20190;-62
2023/06/06 02:56:14;;;;;;;1.70;1.02;;;23.70;40.10;;;;;;5039794;28;20112;-63
2023/06/06 02:58:40;;;;;;;1.95;1.13;;;23.70;40.10;;;;;;5036525;28;20657;-69
2023/06/06 03:01:06;;;;;;;1.40;0.95;;;23.60;40.00;;;;;;5060339;28;20471;-61
2023/06/06 03:03:32;;;;;;;2.25;1.35;;;23.60;40.00;;;;;;5040668;28;20053;-62
2023/06/06 03:05:58;;;;;;;2.20;1.30;;;23.60;40.10;;;;;;5039912;28;20356;-61
2023/06/06 03:08:25;;;;;;;1.85;1.33;;;23.60;40.10;;;;;;5037507;28;20025;-61
2023/06/06 03:10:51;;;;;;;1.70;1.20;;;23.60;40.10;;;;;;5058212;28;20032;-64
2023/06/06 03:13:17;;;;;;;1.85;1.27;;;23.60;40.10;;;;;;5039673;28;20092;-63
2023/06/06 03:15:46;;;;;;;2.53;1.30;;;23.60;40.10;;;;;;5038333;28;20103;-60
2023/06/06 03:18:20;;;;;;;2.42;2.03;;;23.60;40.10;;;;;;5033967;28;20033;-61
2023/06/06 03:20:51;;;;;;;1.25;1.10;;;23.60;40.10;;;;;;5034707;28;20093;-61
2023/06/06 03:23:18;;;;;;;1.38;1.00;;;23.60;40.20;;;;;;5045096;28;20056;-59
2023/06/06 03:25:45;;;;;;;1.10;0.90;;;23.60;40.20;;;;;;5039571;28;20305;-63
2023/06/06 03:28:13;;;;;;;1.25;1.08;;;23.60;40.20;;;;;;5032903;28;20029;-59
2023/06/06 03:30:40;;;;;;;1.95;1.23;;;23.60;40.30;;;;;;5038792;28;20021;-63
2023/06/06 03:33:07;;;;;;;1.30;1.13;;;23.50;40.20;;;;;;5035904;28;20411;-65
2023/06/06 03:35:35;;;;;;;1.20;1.00;;;23.50;40.20;;;;;;5038893;28;20119;-61
2023/06/06 03:38:03;;;;;;;2.03;1.10;;;23.60;40.30;;;;;;5042157;28;20020;-59
2023/06/06 03:40:29;;;;;;;1.58;1.30;;;23.50;40.20;;;;;;5057368;28;20044;-63
2023/06/06 03:42:55;;;;;;;1.63;1.00;;;23.50;40.30;;;;;;5043262;28;20032;-62
2023/06/06 03:45:22;;;;;;;2.55;1.30;;;23.50;40.40;;;;;;5042251;28;20441;-60
2023/06/06 03:47:50;;;;;;;1.52;1.25;;;23.50;40.40;;;;;;5036171;28;20055;-62
2023/06/06 03:50:21;;;;;;;1.45;0.95;;;23.50;40.40;;;;;;5031618;28;20085;-62
2023/06/06 03:52:47;;;;;;;2.78;1.17;;;23.50;40.40;;;;;;5039748;28;20024;-59
2023/06/06 03:55:13;;;;;;;1.83;1.20;;;23.50;40.40;;;;;;5040981;28;20343;-60
2023/06/06 03:57:40;;;;;;;1.70;1.35;;;23.50;40.40;;;;;;5037186;28;20128;-61
2023/06/06 04:00:12;;;;;;;1.42;1.30;;;23.50;40.40;;;;;;5037949;28;20092;-67
2023/06/06 04:02:44;;;;;;;2.05;1.15;;;23.50;40.40;;;;;;5043556;28;20069;-62
2023/06/06 04:05:11;;;;;;;2.25;1.30;;;23.50;40.40;;;;;;5036521;28;20089;-64
2023/06/06 04:07:37;;;;;;;2.33;1.25;;;23.60;40.40;;;;;;5037069;28;20071;-60
2023/06/06 04:10:03;;;;;;;1.92;1.45;;;23.50;40.40;;;;;;5033954;28;20033;-61
2023/06/06 04:12:31;;;;;;;1.27;1.10;;;23.50;40.40;;;;;;5044543;28;20099;-61
2023/06/06 04:14:56;;;;;;;1.40;1.20;;;23.50;40.40;;;;;;5056300;28;20016;-60
2023/06/06 04:17:24;;;;;;;2.30;1.30;;;23.50;40.40;;;;;;5051469;28;20089;-63
2023/06/06 04:19:51;;;;;;;1.58;1.30;;;23.50;40.40;;;;;;5052955;28;20095;-65
2023/06/06 04:22:19;;;;;;;2.05;1.10;;;23.60;40.40;;;;;;5056623;28;20028;-63
2023/06/06 04:24:46;;;;;;;1.50;1.27;;;23.60;40.40;;;;;;5034982;28;20021;-61
2023/06/06 04:27:12;;;;;;;1.20;1.10;;;23.50;40.30;;;;;;5030600;28;20656;-62
2023/06/06 04:29:41;;;;;;;1.70;1.13;;;23.50;40.30;;;;;;5040101;28;20040;-62
2023/06/06 04:32:09;;;;;;;1.65;1.10;;;23.50;40.30;;;;;;5036047;28;20056;-63
2023/06/06 04:34:40;;;;;;;2.05;1.20;;;23.50;40.30;;;;;;5056626;28;20381;-63
2023/06/06 04:37:08;;;;;;;1.23;1.05;;;23.50;40.30;;;;;;5040097;28;20064;-64
2023/06/06 04:39:36;;;;;;;1.60;1.20;;;23.50;40.30;;;;;;5039897;28;20036;-62
2023/06/06 04:42:04;;;;;;;1.48;0.93;;;23.60;40.30;;;;;;5035296;28;20117;-63
2023/06/06 04:44:31;;;;;;;1.67;1.20;;;23.60;40.30;;;;;;5032740;28;20032;-63
2023/06/06 04:47:01;;;;;;;2.25;1.00;;;23.50;40.30;;;;;;5051910;28;20040;-60
2023/06/06 04:49:28;;;;;;;2.25;1.30;;;23.60;40.30;;;;;;5038203;28;20145;-63
2023/06/06 04:51:59;;;;;;;1.58;1.30;;;23.60;40.30;;;;;;5056971;28;20104;-63
2023/06/06 04:54:25;;;;;;;1.35;1.20;;;23.60;40.30;;;;;;5056221;28;20061;-65
2023/06/06 04:56:51;;;;;;;1.80;1.17;;;23.60;40.30;;;;;;5055494;28;20142;-62
2023/06/06 04:59:22;;;;;;;1.40;0.95;;;23.60;40.30;;;;;;5055303;28;20036;-64
2023/06/06 05:01:48;;;;;;;1.25;0.95;;;23.60;40.20;;;;;;5056118;28;20055;-61
2023/06/06 05:04:15;;;;;;;2.67;1.25;;;23.60;40.20;;;;;;5053067;28;20436;-63
2023/06/06 05:06:41;;;;;;;1.58;1.00;;;23.60;40.20;;;;;;5051366;28;20118;-63
2023/06/06 05:09:07;;;;;;;1.23;1.00;;;23.60;40.20;;;;;;5054322;28;20036;-60
2023/06/06 05:11:34;;;;;;;2.08;1.27;;;23.60;40.20;;;;;;5051440;28;20039;-62
2023/06/06 05:14:00;;;;;;;2.45;1.25;;;23.60;40.20;;;;;;5054733;28;20122;-59
2023/06/06 05:16:26;;;;;;;1.77;1.27;;;23.60;40.20;;;;;;5038713;28;20375;-60
2023/06/06 05:18:52;;;;;;;2.30;1.00;;;23.60;40.20;;;;;;5056866;28;20036;-62
2023/06/06 05:21:19;;;;;;;1.40;1.10;;;23.60;40.20;;;;;;5055742;28;20115;-64
2023/06/06 05:23:45;;;;;;;1.40;1.23;;;23.60;40.20;;;;;;5055324;28;20052;-64
2023/06/06 05:26:11;;;;;;;1.13;1.00;;;23.60;40.20;;;;;;5058853;28;20040;-63
2023/06/06 05:28:38;;;;;;;1.70;1.30;;;23.60;40.20;;;;;;5058381;28;20317;-66
2023/06/06 05:31:07;;;;;;;1.40;1.20;;;23.60;40.20;;;;;;5053442;28;20079;-61
2023/06/06 05:33:34;;;;;;;2.42;1.05;;;23.60;40.20;;;;;;5049318;28;20374;-60
2023/06/06 05:36:00;;;;;;;1.45;1.05;;;23.60;40.20;;;;;;5056527;28;20105;-65
2023/06/06 05:38:26;;;;;;;1.17;0.93;;;23.60;40.20;;;;;;5053053;28;20032;-61
2023/06/06 05:40:52;;;;;;;1.70;1.17;;;23.60;40.20;;;;;;5058168;28;20358;-62
2023/06/06 05:43:18;;;;;;;3.40;1.02;;;23.60;40.20;;;;;;5053137;28;20031;-60
2023/06/06 05:45:44;;;;;;;1.25;1.13;;;23.60;40.20;;;;;;5038674;28;20049;-64
2023/06/06 05:48:10;;;;;;;1.20;1.10;;;23.70;40.20;;;;;;5055756;28;20424;-61
2023/06/06 05:50:36;;;;;;;1.88;1.30;;;23.60;40.20;;;;;;5052332;28;20031;-62
2023/06/06 05:53:02;;;;;;;1.55;1.30;;;23.60;40.20;;;;;;5038428;28;20032;-63
2023/06/06 05:55:34;;;;;;;1.23;1.02;;;23.70;40.30;;;;;;5054665;28;20127;-65
2023/06/06 05:58:01;;;;;;;1.40;1.20;;;23.70;40.30;;;;;;5054406;28;20039;-61
2023/06/06 06:00:29;;;;;;;2.03;1.10;;;23.70;40.30;;;;;;5038514;28;20305;-60
2023/06/06 06:02:57;;;;;;;1.65;1.10;;;23.70;40.30;;;;;;5058323;28;20077;-62
2023/06/06 06:05:23;;;;;;;2.22;1.40;;;23.70;40.30;;;;;;5053129;28;20036;-63
2023/06/06 06:07:52;;;;;;;1.45;1.20;;;23.70;40.30;;;;;;5056082;28;20024;-60
2023/06/06 06:10:18;;;;;;;1.90;1.05;;;23.70;40.30;;;;;;5057909;28;20421;-58
2023/06/06 06:12:44;;;;;;;2.03;1.20;;;23.70;40.20;;;;;;5055803;28;20063;-62
2023/06/06 06:15:11;;;;;;;2.40;1.20;;;23.70;40.20;;;;;;5061035;28;20424;-62
2023/06/06 06:17:37;;;;;;;1.52;1.10;;;23.70;40.20;;;;;;5060293;28;20136;-62
2023/06/06 06:20:08;;;;;;;2.28;1.10;;;23.70;40.30;;;;;;5057792;28;20024;-62
2023/06/06 06:22:35;;;;;;;1.40;1.17;;;23.70;40.20;;;;;;5056617;28;20400;-64
2023/06/06 06:25:01;;;;;;;2.33;1.45;;;23.70;40.20;;;;;;5054727;28;20074;-61
2023/06/06 06:27:26;;;;;;;1.48;1.08;;;23.70;40.30;;;;;;5058094;28;20131;-63
2023/06/06 06:29:52;;;;;;;1.60;1.10;;;23.70;40.20;;;;;;5059214;28;20040;-61
2023/06/06 06:32:19;;;;;;;1.95;1.17;;;23.70;40.20;;;;;;5035991;28;20025;-62
2023/06/06 06:34:45;;;;;;;1.88;1.30;;;23.70;40.20;;;;;;5052599;28;20403;-63
2023/06/06 06:37:11;;;;;;;1.63;1.30;;;23.70;40.20;;;;;;5054803;28;20052;-58
2023/06/06 06:39:37;;;;;;;1.30;1.10;;;23.70;40.20;;;;;;5035597;28;20033;-63
2023/06/06 06:42:04;;;;;;;1.20;1.10;;;23.70;40.20;;;;;;5053161;28;20035;-64
2023/06/06 06:44:44;;;;;;;3.58;1.70;;;23.70;40.20;;;;;;5035476;28;20110;-61
2023/06/06 06:47:10;;;;;;;1.85;1.10;;;23.70;40.20;;;;;;5034560;28;20017;-64
2023/06/06 06:49:39;;;;;;;2.63;1.50;;;23.70;40.20;;;;;;5054251;28;20029;-62
2023/06/06 06:52:07;;;;;;;1.50;0.95;;;23.70;40.20;;;;;;5057932;28;20035;-65
2023/06/06 06:54:35;;;;;;;1.73;1.35;;;23.80;40.20;;;;;;5055140;28;20431;-61
2023/06/06 06:57:02;;;;;;;1.90;1.10;;;23.70;40.00;;;;;;5054523;28;20045;-62
2023/06/06 06:59:28;;;;;;;1.40;1.08;;;23.70;40.00;;;;;;5057578;28;20029;-62
2023/06/06 07:01:55;;;;;;;2.03;1.23;;;23.70;40.00;;;;;;5054518;28;20036;-64
2023/06/06 07:04:21;;;;;;;1.77;1.25;;;23.70;39.90;;;;;;5052929;28;20048;-61
2023/06/06 07:06:47;;;;;;;2.17;1.15;;;23.70;39.90;;;;;;5056692;28;20021;-64
2023/06/06 07:09:14;;;;;;;2.20;1.10;;;23.70;39.90;;;;;;5054934;28;20047;-62
2023/06/06 07:11:40;;;;;;;2.05;1.23;;;23.70;39.90;;;;;;5063767;28;20096;-62
2023/06/06 07:14:06;;;;;;;2.15;1.10;;;23.70;39.90;;;;;;5062194;28;20042;-62
2023/06/06 07:16:34;;;;;;;2.47;1.20;;;23.70;39.90;;;;;;5053862;28;20928;-62
2023/06/06 07:18:59;;;;;;;1.95;1.00;;;23.70;39.90;;;;;;5057595;28;20033;-60
2023/06/06 07:21:25;;;;;;;1.98;1.15;;;23.70;39.90;;;;;;5064713;28;20047;-68
2023/06/06 07:23:52;;;;;;;2.08;1.20;;;23.70;39.80;;;;;;5057726;28;20128;-62
2023/06/06 07:26:19;;;;;;;2.08;1.30;;;23.70;39.80;;;;;;5053388;28;20025;-61
2023/06/06 07:28:46;;;;;;;1.63;0.90;;;23.70;39.80;;;;;;5051991;28;20296;-61
2023/06/06 07:31:13;;;;;;;1.75;1.00;;;23.70;39.80;;;;;;5055852;28;20078;-62
2023/06/06 07:33:40;;;;;;;2.00;1.25;;;23.70;39.80;;;;;;5049291;28;20040;-64
2023/06/06 07:36:07;;;;;;;1.25;1.00;;;23.70;39.90;;;;;;5057486;28;20043;-63
2023/06/06 07:38:34;;;;;;;3.00;1.23;;;23.80;39.90;;;;;;5050829;28;20397;-66
2023/06/06 07:41:00;;;;;;;2.20;1.13;;;23.70;39.80;;;;;;5048137;28;20075;-64
2023/06/06 07:43:26;;;;;;;1.60;1.10;;;23.80;39.90;;;;;;5052983;28;20036;-64
2023/06/06 07:45:52;;;;;;;2.72;1.20;;;23.80;39.90;;;;;;5055378;28;20037;-63
2023/06/06 07:48:18;;;;;;;1.33;1.13;;;23.80;39.90;;;;;;5052475;28;20087;-60
2023/06/06 07:50:44;;;;;;;1.90;1.10;;;23.80;39.90;;;;;;5048223;28;20033;-62
2023/06/06 07:53:10;;;;;;;1.80;0.95;;;23.80;39.90;;;;;;5053529;28;20088;-63
2023/06/06 07:55:37;;;;;;;1.40;1.05;;;23.80;39.90;;;;;;5051928;28;20025;-65
2023/06/06 07:58:10;;;;;;;2.85;0.82;;;23.80;39.90;;;;;;5037478;28;20313;-62
2023/06/06 08:00:42;;;;;;;3.53;1.25;;;23.80;39.90;;;;;;5060032;28;20123;-63
2023/06/06 08:03:09;;;;;;;1.92;1.05;;;23.80;39.90;;;;;;5059813;28;20094;-65
2023/06/06 08:05:36;;;;;;;2.03;1.23;;;23.80;39.90;;;;;;5058939;28;20065;-62
2023/06/06 08:08:03;;;;;;;2.35;1.20;;;23.80;39.90;;;;;;5042083;28;20038;-66
2023/06/06 08:10:29;;;;;;;1.67;1.10;;;23.80;39.90;;;;;;5040749;28;20033;-63
2023/06/06 08:12:55;;;;;;;2.63;1.30;;;23.80;40.60;;;;;;5059360;28;20343;-62
2023/06/06 08:15:21;;;;;;;1.33;0.98;;;23.80;39.90;;;;;;5058647;28;20141;-61
2023/06/06 08:17:47;;;;;;;1.73;1.15;;;23.80;39.90;;;;;;5058351;28;20094;-60
2023/06/06 08:20:13;;;;;;;2.15;0.93;;;23.80;39.90;;;;;;5059091;28;20068;-62
2023/06/06 08:22:48;;;;;;;1.52;1.00;;;23.80;40.00;;;;;;5057974;28;20040;-63
2023/06/06 08:25:14;;;;;;;1.58;1.25;;;23.80;40.00;;;;;;5059580;28;20041;-63
2023/06/06 08:27:40;;;;;;;1.42;1.10;;;23.80;40.00;;;;;;5044071;28;20037;-62
2023/06/06 08:30:06;;;;;;;2.50;1.25;;;23.90;40.00;;;;;;5058526;28;20451;-62
2023/06/06 08:32:33;;;;;;;1.98;1.23;;;23.80;40.00;;;;;;5058126;28;20109;-63
2023/06/06 08:34:59;;;;;;;1.30;1.00;;;23.80;40.00;;;;;;5057292;28;20294;-65
2023/06/06 08:37:24;;;;;;;2.47;1.30;;;23.80;40.00;;;;;;5061671;28;20040;-64
2023/06/06 08:39:50;;;;;;;1.38;1.10;;;23.80;40.10;;;;;;5058641;28;20036;-61
2023/06/06 08:42:21;;;;;;;1.67;1.30;;;23.80;40.10;;;;;;5057563;28;20216;-61
2023/06/06 08:44:48;;;;;;;1.65;1.20;;;23.80;40.10;;;;;;5059811;28;20120;-61
2023/06/06 08:47:14;;;;;;;2.05;1.30;;;23.90;40.10;;;;;;5060405;28;20482;-62
2023/06/06 08:49:40;;;;;;;1.63;1.20;;;23.90;40.20;;;;;;5058638;28;20104;-59
2023/06/06 08:52:07;;;;;;;2.50;1.20;;;23.90;40.20;;;;;;5058009;28;20408;-66
2023/06/06 08:54:33;;;;;;;2.53;1.13;;;23.90;40.20;;;;;;5036096;28;20067;-63
2023/06/06 08:57:07;;;;;;;2.15;1.23;;;23.90;40.20;;;;;;5056303;28;20336;-63
2023/06/06 08:59:38;;;;;;;2.55;1.35;;;23.90;40.20;;;;;;5059546;28;20087;-65
2023/06/06 09:02:07;;;;;;;1.95;1.00;;;23.90;40.20;;;;;;5057728;28;20436;-61
2023/06/06 09:04:34;;;;;;;2.15;1.20;;;23.90;40.80;;;;;;5057236;28;20325;-64
2023/06/06 09:07:12;;;;;;;1.70;1.02;;;23.90;40.30;;;;;;5054658;28;20100;-63
2023/06/06 09:09:40;;;;;;;1.30;0.95;;;23.90;40.30;;;;;;5058296;28;20041;-61
2023/06/06 09:12:09;;;;;;;1.10;1.00;;;23.90;40.30;;;;;;5058433;28;20305;-62
2023/06/06 09:14:35;;;;;;;2.70;1.30;;;23.90;40.30;;;;;;5060585;28;20029;-62
2023/06/06 09:17:02;;;;;;;1.45;0.90;;;24.00;40.40;;;;;;5056746;28;20448;-64
2023/06/06 09:19:30;;;;;;;1.90;1.10;;;24.00;40.40;;;;;;5060458;28;20135;-63
2023/06/06 09:21:59;;;;;;;1.98;1.00;;;24.00;40.40;;;;;;5057400;28;20037;-65
2023/06/06 09:24:26;;;;;;;1.55;1.27;;;24.00;40.40;;;;;;5058373;28;20033;-61
2023/06/06 09:26:52;;;;;;;1.38;1.08;;;24.00;40.40;;;;;;5059262;28;20147;-61
2023/06/06 09:29:18;;;;;;;1.60;1.10;;;24.00;40.40;;;;;;5059793;28;20088;-65
2023/06/06 09:31:44;;;;;;;1.92;1.20;;;24.00;40.40;;;;;;5058152;28;20025;-64
2023/06/06 09:34:10;;;;;;;1.98;1.48;;;24.00;40.50;;;;;;5058430;28;20044;-62
2023/06/06 09:36:45;;;;;;;2.95;1.30;;;24.00;40.60;;;;;;5056965;28;20148;-66
2023/06/06 09:39:14;;;;;;;;;;;24.00;40.80;;;;;;5058343;28;20029;-63
2023/06/06 09:41:45;;;;;;;2.20;1.25;;;24.00;40.80;;;;;;5055939;28;19999;-60
2023/06/06 09:44:24;;;;;;;3.88;1.90;;;24.00;40.90;;;;;;5058079;28;20130;-64
2023/06/06 09:47:01;;;;;;;3.00;1.48;;;24.00;40.90;;;;;;5059554;28;20518;-60
2023/06/06 09:49:36;;;;;;;3.35;1.50;;;24.00;41.10;;;;;;5059932;28;20420;-65
2023/06/06 09:52:03;;;;;;;2.50;1.50;;;24.00;41.10;;;;;;5057715;28;20156;-62
2023/06/06 09:54:30;;;;;;;2.78;1.38;;;24.00;41.30;;;;;;5060940;28;20169;-66
2023/06/06 09:56:56;;;;;;;2.45;1.63;;;24.00;41.30;;;;;;5041749;28;20064;-63
2023/06/06 09:59:27;;;;;;;2.53;1.50;;;24.00;41.30;;;;;;5056133;28;20119;-62
2023/06/06 10:02:02;;;;;;;2.58;1.50;;;24.00;41.30;;;;;;5060249;28;20119;-65
2023/06/06 10:04:28;;;;;;;2.88;1.40;;;24.10;41.40;;;;;;5057327;28;20136;-63
2023/06/06 10:06:57;;;;;;;3.13;1.70;;;24.10;41.40;;;;;;5056688;28;20056;-62
2023/06/06 10:09:22;;;;;;;2.50;1.40;;;24.10;41.40;;;;;;5059832;28;20455;-66
2023/06/06 10:11:50;;;;;;;2.42;1.42;;;24.10;41.40;;;;;;5040739;28;20037;-65
2023/06/06 10:14:16;;;;;;;2.45;1.35;;;24.10;41.40;;;;;;5058106;28;20029;-62
2023/06/06 10:16:42;;;;;;;3.03;1.52;;;24.10;41.50;;;;;;5039018;28;20044;-62
2023/06/06 10:19:11;;;;;;;2.92;1.52;;;24.10;41.50;;;;;;5052759;28;20281;-64
2023/06/06 10:21:38;;;;;;;2.00;1.40;;;24.10;42.10;;;;;;5053681;28;20097;-61
2023/06/06 10:24:05;;;;;;;1.98;1.20;;;24.10;41.50;;;;;;5054053;28;20021;-60
2023/06/06 10:26:39;;;;;;;2.30;1.38;;;24.10;41.50;;;;;;5055341;28;20070;-64
2023/06/06 10:29:09;;;;;;;;;;;24.10;41.50;;;;;;5060808;28;20108;-60
2023/06/06 10:32:03;;;;;;;2.70;1.40;;;24.20;41.60;;;;;;5060114;28;19991;-63
2023/06/06 10:34:36;;;;;;;4.07;1.20;;;24.10;41.50;;;;;;5066472;28;20099;-63
2023/06/06 10:37:16;;;;;;;5.97;1.70;;;24.20;41.60;;;;;;5057735;28;20103;-63
2023/06/06 10:39:47;;;;;;;2.22;1.63;;;24.20;41.80;;;;;;5030875;28;20041;-64
2023/06/06 10:42:13;;;;;;;2.45;1.80;;;24.20;42.00;;;;;;5053639;28;20036;-65
2023/06/06 10:44:45;;;;;;;1.65;1.23;;;24.20;42.00;;;;;;5055819;28;20406;-62
2023/06/06 10:47:32;;;;;;;2.28;1.30;;;24.20;42.10;;;;;;5013784;28;20304;-63
2023/06/06 10:50:13;;;;;;;2.60;1.23;;;24.30;42.20;;;;;;5015721;28;20033;-64
2023/06/06 10:53:05;;;;;;;2.38;1.50;;;24.30;42.30;;;;;;5009963;28;20087;-66
2023/06/06 10:55:31;;;;;;;2.92;1.40;;;24.30;42.40;;;;;;5012957;28;20204;-65
2023/06/06 10:58:15;;;;;;;2.53;1.30;;;24.30;42.40;;;;;;5012312;28;20367;-67
2023/06/06 11:00:50;;;;;;;1.58;1.15;;;24.30;42.40;;;;;;5019832;28;20124;-66
2023/06/06 11:03:39;;;;;;;1.95;1.50;;;24.40;43.00;;;;;;5014792;28;20065;-66
2023/06/06 11:06:21;;;;;;;3.65;1.60;;;24.50;42.30;;;;;;5011219;28;20049;-64
2023/06/06 11:09:00;;;;;;;1.92;1.40;;;24.60;42.20;;;;;;5011209;28;21269;-66
2023/06/06 11:11:29;;;;;;;2.35;1.42;;;24.70;42.10;;;;;;5011228;28;20152;-67
2023/06/06 11:14:07;;;;;;;1.88;1.45;;;24.80;42.00;;;;;;5013413;28;20029;-63
2023/06/06 11:16:39;;;;;;;3.55;1.30;;;24.90;41.80;;;;;;5012117;28;20038;-63
2023/06/06 11:19:19;;;;;;;2.78;1.30;;;25.00;41.60;;;;;;5010347;28;20023;-64
2023/06/06 11:21:59;;;;;;;1.60;1.10;;;25.10;41.40;;;;;;5014178;28;20117;-68
2023/06/06 11:24:37;;;;;;;1.55;1.15;;;25.20;41.30;;;;;;5014832;28;20217;-68
2023/06/06 11:27:13;;;;;;;1.88;1.20;;;25.30;41.10;;;;;;5010220;28;20315;-67
2023/06/06 11:29:45;;;;;;;2.08;1.10;;;25.40;41.10;;;;;;5028083;28;20100;-68
2023/06/06 11:32:18;;;;;;;2.85;1.55;;;25.50;40.90;;;;;;5010406;28;20038;-64
2023/06/06 11:34:48;;;;;;;1.90;1.02;;;25.60;40.80;;;;;;5009952;28;20354;-67
2023/06/06 11:37:18;;;;;;;3.83;1.48;;;25.70;40.70;;;;;;5012972;28;20060;-66
2023/06/06 11:39:52;;;;;;;2.53;1.25;;;25.70;40.50;;;;;;5009316;28;20036;-66
2023/06/06 11:42:21;;;;;;;2.33;1.38;;;25.80;40.50;;;;;;5009863;28;20119;-66
2023/06/06 11:44:48;;;;;;;2.55;1.65;;;25.90;40.40;;;;;;5012836;28;20089;-65
2023/06/06 11:47:33;;;;;;;5.45;1.80;;;26.00;40.40;;;;;;5056345;28;20392;-66
2023/06/06 11:50:10;;;;;;;2.10;1.58;;;26.00;40.30;;;;;;5052567;28;21437;-66
2023/06/06 11:52:51;;;;;;;2.42;1.50;;;26.10;40.30;;;;;;5051853;28;20094;-65
2023/06/06 11:56:00;;;;;;;1.60;1.38;;;26.20;40.20;;;;;;5056559;28;20111;-68
2023/06/06 11:58:33;;;;;;;3.13;1.52;;;26.20;40.10;;;;;;4977569;28;20058;-69
2023/06/06 12:01:39;;;;;;;2.10;1.42;;;26.20;40.00;;;;;;5043420;28;20041;-67
2023/06/06 12:04:07;;;;;;;2.50;1.67;;;26.30;39.90;;;;;;5032454;28;20040;-66
2023/06/06 12:06:33;;;;;;;2.75;1.83;;;26.40;40.00;;;;;;5056250;28;20040;-67
2023/06/06 12:09:00;;;;;;;2.80;1.65;;;26.40;39.90;;;;;;5033516;28;20044;-66
2023/06/06 12:11:29;;;;;;;3.42;1.80;;;26.50;39.90;;;;;;5059983;28;20437;-65
2023/06/06 12:13:56;;;;;;;3.65;1.88;;;26.60;39.90;;;;;;5051601;28;20149;-67
2023/06/06 12:16:26;;;;;;;3.25;1.88;;;26.60;39.80;;;;;;5049712;28;20025;-67
2023/06/06 12:18:56;;;;;;;3.25;1.75;;;26.60;39.70;;;;;;5051328;28;20055;-69
2023/06/06 12:21:22;;;;;;;2.85;1.95;;;26.70;39.70;;;;;;5051092;28;20166;-66
2023/06/06 12:23:49;;;;;;;3.95;2.08;;;26.70;39.60;;;;;;5049793;28;20052;-68
2023/06/06 12:26:18;;;;;;;1.63;1.40;;;26.80;39.60;;;;;;5058918;28;20073;-66
2023/06/06 12:29:01;;;;;;;2.67;1.90;;;26.80;39.50;;;;;;5051704;28;20024;-66
2023/06/06 12:31:34;;;;;;;2.55;1.77;;;26.80;39.40;;;;;;5055517;28;20065;-70
2023/06/06 12:34:00;;;;;;;2.40;1.67;;;26.90;39.40;;;;;;5030550;28;20518;-66
2023/06/06 12:36:26;;;;;;;3.75;1.77;;;26.90;39.30;;;;;;5027386;28;20055;-67
2023/06/06 12:39:00;;;;;;;2.40;1.50;;;26.90;39.20;;;;;;5037798;28;20036;-64
2023/06/06 12:41:39;;;;;;;2.88;1.80;;;27.00;39.00;;;;;;5059226;28;20413;-66
2023/06/06 12:44:08;;;;;;;1.98;1.50;;;27.00;38.90;;;;;;5054270;28;20090;-66
2023/06/06 12:46:37;;;;;;;2.70;1.38;;;27.10;38.80;;;;;;5023096;28;20053;-67
2023/06/06 12:49:03;;;;;;;3.63;1.70;;;27.00;38.60;;;;;;5008412;28;20021;-66
2023/06/06 12:51:30;;;;;;;2.75;1.65;;;27.10;38.80;;;;;;5015160;28;20044;-66
2023/06/06 12:53:56;;;;;;;3.20;1.67;;;27.10;38.80;;;;;;5022845;28;20033;-66
2023/06/06 12:56:23;;;;;;;2.40;1.90;;;27.10;38.80;;;;;;5010001;28;20143;-66